sensor_id;sensor_type;location;lat;lon;timestamp;P1;durP1;ratioP1;P2;durP2;ratioP2
36291;SDS011;22327;51.208;6.418;2023-07-02T00:01:42;5.75;;;2.35;;
36291;SDS011;22327;51.208;6.418;2023-07-02T00:04:42;4.72;;;2.40;;
36291;SDS011;22327;51.208;6.418;2023-07-02T00:07:43;4.45;;;2.67;;
36291;SDS011;22327;51.208;6.418;2023-07-02T00:10:43;5.70;;;2.30;;
36291;SDS011;22327;51.208;6.418;2023-07-02T00:13:44;4.38;;;2.67;;
36291;SDS011;22327;51.208;6.418;2023-07-02T00:16:45;5.43;;;2.85;;
36291;SDS011;22327;51.208;6.418;2023-07-02T00:19:46;6.80;;;2.58;;
36291;SDS011;22327;51.208;6.418;2023-07-02T00:22:46;7.85;;;2.88;;
36291;SDS011;22327;51.208;6.418;2023-07-02T00:25:48;8.85;;;3.05;;
36291;SDS011;22327;51.208;6.418;2023-07-02T00:28:49;5.60;;;3.28;;
36291;SDS011;22327;51.208;6.418;2023-07-02T00:31:49;5.60;;;2.70;;
36291;SDS011;22327;51.208;6.418;2023-07-02T00:34:50;3.80;;;2.55;;
36291;SDS011;22327;51.208;6.418;2023-07-02T00:37:51;5.60;;;2.40;;
36291;SDS011;22327;51.208;6.418;2023-07-02T00:40:51;6.47;;;3.25;;
36291;SDS011;22327;51.208;6.418;2023-07-02T00:43:52;9.05;;;3.60;;
36291;SDS011;22327;51.208;6.418;2023-07-02T00:46:54;7.50;;;2.83;;
36291;SDS011;22327;51.208;6.418;2023-07-02T00:49:55;5.68;;;3.00;;
36291;SDS011;22327;51.208;6.418;2023-07-02T00:52:55;6.32;;;3.65;;
36291;SDS011;22327;51.208;6.418;2023-07-02T00:55:56;6.75;;;3.40;;
36291;SDS011;22327;51.208;6.418;2023-07-02T00:58:56;8.40;;;4.10;;
36291;SDS011;22327;51.208;6.418;2023-07-02T01:01:58;6.72;;;3.28;;
36291;SDS011;22327;51.208;6.418;2023-07-02T01:04:59;9.85;;;3.65;;
36291;SDS011;22327;51.208;6.418;2023-07-02T01:07:59;7.85;;;3.55;;
36291;SDS011;22327;51.208;6.418;2023-07-02T01:11:00;8.32;;;3.55;;
36291;SDS011;22327;51.208;6.418;2023-07-02T01:14:11;6.78;;;3.50;;
36291;SDS011;22327;51.208;6.418;2023-07-02T01:17:19;6.65;;;3.88;;
36291;SDS011;22327;51.208;6.418;2023-07-02T01:20:20;8.95;;;3.92;;
36291;SDS011;22327;51.208;6.418;2023-07-02T01:23:21;11.88;;;4.65;;
36291;SDS011;22327;51.208;6.418;2023-07-02T01:26:21;9.50;;;4.78;;
36291;SDS011;22327;51.208;6.418;2023-07-02T01:29:22;7.50;;;4.45;;
36291;SDS011;22327;51.208;6.418;2023-07-02T01:32:22;10.50;;;4.88;;
36291;SDS011;22327;51.208;6.418;2023-07-02T01:35:23;9.35;;;4.75;;
36291;SDS011;22327;51.208;6.418;2023-07-02T01:38:23;12.55;;;5.80;;
36291;SDS011;22327;51.208;6.418;2023-07-02T01:41:24;10.00;;;5.00;;
36291;SDS011;22327;51.208;6.418;2023-07-02T01:44:25;11.48;;;5.60;;
36291;SDS011;22327;51.208;6.418;2023-07-02T01:47:25;10.10;;;5.70;;
36291;SDS011;22327;51.208;6.418;2023-07-02T01:50:26;11.68;;;6.40;;
36291;SDS011;22327;51.208;6.418;2023-07-02T01:53:27;11.93;;;6.38;;
36291;SDS011;22327;51.208;6.418;2023-07-02T01:56:27;11.45;;;5.30;;
36291;SDS011;22327;51.208;6.418;2023-07-02T01:59:28;14.65;;;6.60;;
36291;SDS011;22327;51.208;6.418;2023-07-02T02:02:28;13.55;;;5.90;;
36291;SDS011;22327;51.208;6.418;2023-07-02T02:05:29;12.85;;;6.30;;
36291;SDS011;22327;51.208;6.418;2023-07-02T02:08:30;11.10;;;5.75;;
36291;SDS011;22327;51.208;6.418;2023-07-02T02:11:31;13.18;;;6.50;;
36291;SDS011;22327;51.208;6.418;2023-07-02T02:14:32;15.35;;;6.53;;
36291;SDS011;22327;51.208;6.418;2023-07-02T02:17:33;11.55;;;6.72;;
36291;SDS011;22327;51.208;6.418;2023-07-02T02:20:35;13.57;;;6.60;;
36291;SDS011;22327;51.208;6.418;2023-07-02T02:23:35;16.90;;;7.05;;
36291;SDS011;22327;51.208;6.418;2023-07-02T02:26:36;12.13;;;6.25;;
36291;SDS011;22327;51.208;6.418;2023-07-02T02:29:36;13.27;;;7.70;;
36291;SDS011;22327;51.208;6.418;2023-07-02T02:32:37;14.10;;;7.60;;
36291;SDS011;22327;51.208;6.418;2023-07-02T02:35:37;14.20;;;7.35;;
36291;SDS011;22327;51.208;6.418;2023-07-02T02:38:38;14.70;;;7.68;;
36291;SDS011;22327;51.208;6.418;2023-07-02T02:41:38;14.52;;;7.38;;
36291;SDS011;22327;51.208;6.418;2023-07-02T02:44:39;15.93;;;8.07;;
36291;SDS011;22327;51.208;6.418;2023-07-02T02:47:39;16.15;;;7.32;;
36291;SDS011;22327;51.208;6.418;2023-07-02T02:50:40;16.70;;;8.50;;
36291;SDS011;22327;51.208;6.418;2023-07-02T02:53:43;18.92;;;7.82;;
36291;SDS011;22327;51.208;6.418;2023-07-02T02:56:43;16.45;;;7.65;;
36291;SDS011;22327;51.208;6.418;2023-07-02T02:59:44;17.50;;;8.10;;
36291;SDS011;22327;51.208;6.418;2023-07-02T03:02:44;14.98;;;8.18;;
36291;SDS011;22327;51.208;6.418;2023-07-02T03:05:44;16.35;;;7.70;;
36291;SDS011;22327;51.208;6.418;2023-07-02T03:08:48;14.70;;;7.97;;
36291;SDS011;22327;51.208;6.418;2023-07-02T03:11:48;18.05;;;8.75;;
36291;SDS011;22327;51.208;6.418;2023-07-02T03:14:49;15.43;;;8.43;;
36291;SDS011;22327;51.208;6.418;2023-07-02T03:17:52;15.93;;;9.43;;
36291;SDS011;22327;51.208;6.418;2023-07-02T03:20:53;18.13;;;8.95;;
36291;SDS011;22327;51.208;6.418;2023-07-02T03:23:53;17.52;;;8.68;;
36291;SDS011;22327;51.208;6.418;2023-07-02T03:26:54;18.10;;;9.27;;
36291;SDS011;22327;51.208;6.418;2023-07-02T03:29:54;18.13;;;9.68;;
36291;SDS011;22327;51.208;6.418;2023-07-02T03:32:55;17.17;;;10.63;;
36291;SDS011;22327;51.208;6.418;2023-07-02T03:35:56;17.73;;;9.02;;
36291;SDS011;22327;51.208;6.418;2023-07-02T03:38:56;15.93;;;9.57;;
36291;SDS011;22327;51.208;6.418;2023-07-02T03:41:57;17.60;;;9.80;;
36291;SDS011;22327;51.208;6.418;2023-07-02T03:44:57;19.45;;;10.63;;
36291;SDS011;22327;51.208;6.418;2023-07-02T03:47:58;14.98;;;8.88;;
36291;SDS011;22327;51.208;6.418;2023-07-02T03:50:58;17.88;;;9.88;;
36291;SDS011;22327;51.208;6.418;2023-07-02T03:53:59;20.90;;;11.57;;
36291;SDS011;22327;51.208;6.418;2023-07-02T03:56:59;16.40;;;9.70;;
36291;SDS011;22327;51.208;6.418;2023-07-02T04:00:00;22.95;;;11.07;;
36291;SDS011;22327;51.208;6.418;2023-07-02T04:03:00;19.10;;;10.40;;
36291;SDS011;22327;51.208;6.418;2023-07-02T04:06:01;18.98;;;11.77;;
36291;SDS011;22327;51.208;6.418;2023-07-02T04:09:02;21.70;;;10.43;;
36291;SDS011;22327;51.208;6.418;2023-07-02T04:12:04;21.40;;;10.68;;
36291;SDS011;22327;51.208;6.418;2023-07-02T04:15:05;18.10;;;10.13;;
36291;SDS011;22327;51.208;6.418;2023-07-02T04:18:06;20.90;;;10.57;;
36291;SDS011;22327;51.208;6.418;2023-07-02T04:21:07;20.20;;;11.02;;
36291;SDS011;22327;51.208;6.418;2023-07-02T04:24:07;20.33;;;10.63;;
36291;SDS011;22327;51.208;6.418;2023-07-02T04:27:07;19.70;;;11.00;;
36291;SDS011;22327;51.208;6.418;2023-07-02T04:30:08;19.55;;;10.70;;
36291;SDS011;22327;51.208;6.418;2023-07-02T04:33:10;19.20;;;11.45;;
36291;SDS011;22327;51.208;6.418;2023-07-02T04:36:14;19.38;;;10.52;;
36291;SDS011;22327;51.208;6.418;2023-07-02T04:39:14;19.35;;;10.75;;
36291;SDS011;22327;51.208;6.418;2023-07-02T04:42:15;22.98;;;11.23;;
36291;SDS011;22327;51.208;6.418;2023-07-02T04:45:15;20.55;;;10.77;;
36291;SDS011;22327;51.208;6.418;2023-07-02T04:48:16;17.08;;;10.48;;
36291;SDS011;22327;51.208;6.418;2023-07-02T04:51:16;20.27;;;10.90;;
36291;SDS011;22327;51.208;6.418;2023-07-02T04:54:17;20.52;;;11.43;;
36291;SDS011;22327;51.208;6.418;2023-07-02T04:57:17;23.48;;;11.57;;
36291;SDS011;22327;51.208;6.418;2023-07-02T05:00:18;22.15;;;10.82;;
36291;SDS011;22327;51.208;6.418;2023-07-02T05:03:19;19.98;;;10.93;;
36291;SDS011;22327;51.208;6.418;2023-07-02T05:06:19;19.55;;;10.93;;
36291;SDS011;22327;51.208;6.418;2023-07-02T05:09:20;21.35;;;11.13;;
36291;SDS011;22327;51.208;6.418;2023-07-02T05:12:20;21.75;;;11.20;;
36291;SDS011;22327;51.208;6.418;2023-07-02T05:15:21;25.48;;;12.00;;
36291;SDS011;22327;51.208;6.418;2023-07-02T05:18:23;18.73;;;11.63;;
36291;SDS011;22327;51.208;6.418;2023-07-02T05:21:23;18.60;;;10.98;;
36291;SDS011;22327;51.208;6.418;2023-07-02T05:24:24;23.27;;;11.00;;
36291;SDS011;22327;51.208;6.418;2023-07-02T05:27:24;20.23;;;10.98;;
36291;SDS011;22327;51.208;6.418;2023-07-02T05:30:25;21.38;;;11.23;;
36291;SDS011;22327;51.208;6.418;2023-07-02T05:33:25;21.77;;;11.35;;
36291;SDS011;22327;51.208;6.418;2023-07-02T05:36:26;19.77;;;11.18;;
36291;SDS011;22327;51.208;6.418;2023-07-02T05:39:26;20.75;;;10.85;;
36291;SDS011;22327;51.208;6.418;2023-07-02T05:42:27;20.45;;;10.95;;
36291;SDS011;22327;51.208;6.418;2023-07-02T05:45:27;27.83;;;11.65;;
36291;SDS011;22327;51.208;6.418;2023-07-02T05:48:28;23.25;;;11.68;;
36291;SDS011;22327;51.208;6.418;2023-07-02T05:51:29;22.85;;;11.07;;
36291;SDS011;22327;51.208;6.418;2023-07-02T05:54:30;23.15;;;12.50;;
36291;SDS011;22327;51.208;6.418;2023-07-02T05:57:30;24.35;;;12.25;;
36291;SDS011;22327;51.208;6.418;2023-07-02T06:00:31;26.55;;;12.27;;
36291;SDS011;22327;51.208;6.418;2023-07-02T06:03:31;22.38;;;12.10;;
36291;SDS011;22327;51.208;6.418;2023-07-02T06:06:32;25.05;;;12.68;;
36291;SDS011;22327;51.208;6.418;2023-07-02T06:09:32;25.00;;;11.50;;
36291;SDS011;22327;51.208;6.418;2023-07-02T06:12:33;19.38;;;12.00;;
36291;SDS011;22327;51.208;6.418;2023-07-02T06:15:33;20.60;;;12.00;;
36291;SDS011;22327;51.208;6.418;2023-07-02T06:18:34;23.88;;;13.02;;
36291;SDS011;22327;51.208;6.418;2023-07-02T06:21:36;21.98;;;11.20;;
36291;SDS011;22327;51.208;6.418;2023-07-02T06:24:36;18.23;;;11.05;;
36291;SDS011;22327;51.208;6.418;2023-07-02T06:27:37;16.15;;;10.63;;
36291;SDS011;22327;51.208;6.418;2023-07-02T06:30:37;19.40;;;11.02;;
36291;SDS011;22327;51.208;6.418;2023-07-02T06:33:39;20.27;;;11.45;;
36291;SDS011;22327;51.208;6.418;2023-07-02T06:36:40;17.95;;;11.60;;
36291;SDS011;22327;51.208;6.418;2023-07-02T06:39:41;19.77;;;9.80;;
36291;SDS011;22327;51.208;6.418;2023-07-02T06:42:41;18.88;;;10.90;;
36291;SDS011;22327;51.208;6.418;2023-07-02T06:45:42;17.38;;;10.55;;
36291;SDS011;22327;51.208;6.418;2023-07-02T06:48:43;19.30;;;11.48;;
36291;SDS011;22327;51.208;6.418;2023-07-02T06:51:43;17.90;;;10.43;;
36291;SDS011;22327;51.208;6.418;2023-07-02T06:54:44;19.50;;;10.38;;
36291;SDS011;22327;51.208;6.418;2023-07-02T06:57:45;18.50;;;9.82;;
36291;SDS011;22327;51.208;6.418;2023-07-02T07:00:46;19.23;;;10.70;;
36291;SDS011;22327;51.208;6.418;2023-07-02T07:03:47;16.73;;;10.25;;
36291;SDS011;22327;51.208;6.418;2023-07-02T07:06:47;15.73;;;9.15;;
36291;SDS011;22327;51.208;6.418;2023-07-02T07:09:48;16.45;;;10.75;;
36291;SDS011;22327;51.208;6.418;2023-07-02T07:12:48;16.67;;;10.43;;
36291;SDS011;22327;51.208;6.418;2023-07-02T07:15:49;16.08;;;10.05;;
36291;SDS011;22327;51.208;6.418;2023-07-02T07:18:49;14.73;;;9.88;;
36291;SDS011;22327;51.208;6.418;2023-07-02T07:21:50;16.08;;;9.77;;
36291;SDS011;22327;51.208;6.418;2023-07-02T07:24:50;14.40;;;9.20;;
36291;SDS011;22327;51.208;6.418;2023-07-02T07:27:51;15.35;;;9.63;;
36291;SDS011;22327;51.208;6.418;2023-07-02T07:30:52;18.52;;;10.02;;
36291;SDS011;22327;51.208;6.418;2023-07-02T07:33:52;18.30;;;9.90;;
36291;SDS011;22327;51.208;6.418;2023-07-02T07:36:53;15.68;;;10.35;;
36291;SDS011;22327;51.208;6.418;2023-07-02T07:39:53;17.63;;;10.57;;
36291;SDS011;22327;51.208;6.418;2023-07-02T07:42:54;16.08;;;9.63;;
36291;SDS011;22327;51.208;6.418;2023-07-02T07:45:54;13.27;;;8.43;;
36291;SDS011;22327;51.208;6.418;2023-07-02T07:48:55;18.88;;;9.98;;
36291;SDS011;22327;51.208;6.418;2023-07-02T07:51:55;16.55;;;9.18;;
36291;SDS011;22327;51.208;6.418;2023-07-02T07:54:56;18.25;;;8.90;;
36291;SDS011;22327;51.208;6.418;2023-07-02T07:57:57;16.25;;;8.80;;
36291;SDS011;22327;51.208;6.418;2023-07-02T08:00:57;16.15;;;8.75;;
36291;SDS011;22327;51.208;6.418;2023-07-02T08:03:58;16.63;;;8.20;;
36291;SDS011;22327;51.208;6.418;2023-07-02T08:06:58;16.55;;;8.75;;
36291;SDS011;22327;51.208;6.418;2023-07-02T08:09:59;17.52;;;9.38;;
36291;SDS011;22327;51.208;6.418;2023-07-02T08:13:00;18.33;;;8.35;;
36291;SDS011;22327;51.208;6.418;2023-07-02T08:16:00;15.55;;;8.70;;
36291;SDS011;22327;51.208;6.418;2023-07-02T08:19:01;19.67;;;9.55;;
36291;SDS011;22327;51.208;6.418;2023-07-02T08:22:02;19.50;;;9.10;;
36291;SDS011;22327;51.208;6.418;2023-07-02T08:25:02;16.27;;;8.82;;
36291;SDS011;22327;51.208;6.418;2023-07-02T08:28:03;15.90;;;9.00;;
36291;SDS011;22327;51.208;6.418;2023-07-02T08:31:04;13.85;;;8.77;;
36291;SDS011;22327;51.208;6.418;2023-07-02T08:34:04;18.20;;;8.93;;
36291;SDS011;22327;51.208;6.418;2023-07-02T08:37:05;16.23;;;9.27;;
36291;SDS011;22327;51.208;6.418;2023-07-02T08:40:05;17.88;;;9.77;;
36291;SDS011;22327;51.208;6.418;2023-07-02T08:43:15;15.88;;;8.52;;
36291;SDS011;22327;51.208;6.418;2023-07-02T08:46:15;15.75;;;8.30;;
36291;SDS011;22327;51.208;6.418;2023-07-02T08:49:16;19.75;;;10.63;;
36291;SDS011;22327;51.208;6.418;2023-07-02T08:52:17;16.90;;;9.05;;
36291;SDS011;22327;51.208;6.418;2023-07-02T08:55:18;14.95;;;8.23;;
36291;SDS011;22327;51.208;6.418;2023-07-02T08:58:18;16.20;;;8.18;;
36291;SDS011;22327;51.208;6.418;2023-07-02T09:01:19;17.25;;;8.88;;
36291;SDS011;22327;51.208;6.418;2023-07-02T09:04:21;18.10;;;9.07;;
36291;SDS011;22327;51.208;6.418;2023-07-02T09:07:24;15.65;;;8.02;;
36291;SDS011;22327;51.208;6.418;2023-07-02T09:10:28;16.42;;;9.48;;
36291;SDS011;22327;51.208;6.418;2023-07-02T09:13:30;16.52;;;8.43;;
36291;SDS011;22327;51.208;6.418;2023-07-02T09:16:31;18.05;;;8.57;;
36291;SDS011;22327;51.208;6.418;2023-07-02T09:19:34;18.25;;;10.10;;
36291;SDS011;22327;51.208;6.418;2023-07-02T09:22:35;16.88;;;9.45;;
36291;SDS011;22327;51.208;6.418;2023-07-02T09:25:37;18.35;;;10.07;;
36291;SDS011;22327;51.208;6.418;2023-07-02T09:28:38;17.40;;;10.23;;
36291;SDS011;22327;51.208;6.418;2023-07-02T09:31:42;19.88;;;9.98;;
36291;SDS011;22327;51.208;6.418;2023-07-02T09:34:44;17.17;;;9.25;;
36291;SDS011;22327;51.208;6.418;2023-07-02T09:37:45;12.40;;;6.82;;
36291;SDS011;22327;51.208;6.418;2023-07-02T09:40:47;11.07;;;5.63;;
36291;SDS011;22327;51.208;6.418;2023-07-02T09:43:49;10.53;;;5.40;;
36291;SDS011;22327;51.208;6.418;2023-07-02T09:46:56;9.68;;;4.75;;
36291;SDS011;22327;51.208;6.418;2023-07-02T09:50:03;12.10;;;5.50;;
36291;SDS011;22327;51.208;6.418;2023-07-02T09:53:05;12.05;;;5.65;;
36291;SDS011;22327;51.208;6.418;2023-07-02T09:56:06;10.32;;;5.68;;
36291;SDS011;22327;51.208;6.418;2023-07-02T09:59:08;10.15;;;5.53;;
36291;SDS011;22327;51.208;6.418;2023-07-02T10:02:09;16.02;;;7.30;;
36291;SDS011;22327;51.208;6.418;2023-07-02T10:05:11;12.43;;;5.90;;
36291;SDS011;22327;51.208;6.418;2023-07-02T10:08:31;12.13;;;5.72;;
36291;SDS011;22327;51.208;6.418;2023-07-02T10:11:34;11.75;;;6.50;;
36291;SDS011;22327;51.208;6.418;2023-07-02T10:14:41;11.82;;;5.53;;
36291;SDS011;22327;51.208;6.418;2023-07-02T10:17:42;10.73;;;6.05;;
36291;SDS011;22327;51.208;6.418;2023-07-02T10:20:53;11.07;;;5.20;;
36291;SDS011;22327;51.208;6.418;2023-07-02T10:23:54;10.50;;;5.25;;
36291;SDS011;22327;51.208;6.418;2023-07-02T10:26:55;10.90;;;6.63;;
36291;SDS011;22327;51.208;6.418;2023-07-02T10:29:57;9.25;;;5.97;;
36291;SDS011;22327;51.208;6.418;2023-07-02T10:33:14;10.75;;;4.63;;
36291;SDS011;22327;51.208;6.418;2023-07-02T10:36:21;9.63;;;5.35;;
36291;SDS011;22327;51.208;6.418;2023-07-02T10:39:23;12.05;;;5.60;;
36291;SDS011;22327;51.208;6.418;2023-07-02T10:42:24;10.50;;;6.53;;
36291;SDS011;22327;51.208;6.418;2023-07-02T10:45:31;11.73;;;6.28;;
36291;SDS011;22327;51.208;6.418;2023-07-02T10:48:33;9.75;;;5.50;;
36291;SDS011;22327;51.208;6.418;2023-07-02T10:51:33;10.25;;;5.68;;
36291;SDS011;22327;51.208;6.418;2023-07-02T10:54:45;9.02;;;5.55;;
36291;SDS011;22327;51.208;6.418;2023-07-02T10:57:47;10.50;;;5.40;;
36291;SDS011;22327;51.208;6.418;2023-07-02T11:04:04;16.48;;;6.97;;
36291;SDS011;22327;51.208;6.418;2023-07-02T11:07:05;12.63;;;5.97;;
36291;SDS011;22327;51.208;6.418;2023-07-02T11:10:06;8.20;;;4.80;;
36291;SDS011;22327;51.208;6.418;2023-07-02T11:13:17;10.68;;;5.22;;
36291;SDS011;22327;51.208;6.418;2023-07-02T11:16:28;9.10;;;4.63;;
36291;SDS011;22327;51.208;6.418;2023-07-02T11:19:29;10.32;;;5.30;;
36291;SDS011;22327;51.208;6.418;2023-07-02T11:22:33;11.82;;;6.18;;
36291;SDS011;22327;51.208;6.418;2023-07-02T11:25:34;8.70;;;5.13;;
36291;SDS011;22327;51.208;6.418;2023-07-02T11:28:34;9.65;;;5.18;;
36291;SDS011;22327;51.208;6.418;2023-07-02T11:31:35;11.38;;;5.90;;
36291;SDS011;22327;51.208;6.418;2023-07-02T11:34:36;13.40;;;6.45;;
36291;SDS011;22327;51.208;6.418;2023-07-02T11:37:38;11.60;;;5.65;;
36291;SDS011;22327;51.208;6.418;2023-07-02T11:40:38;9.80;;;5.35;;
36291;SDS011;22327;51.208;6.418;2023-07-02T11:43:39;9.82;;;4.95;;
36291;SDS011;22327;51.208;6.418;2023-07-02T11:46:39;13.10;;;5.40;;
36291;SDS011;22327;51.208;6.418;2023-07-02T11:49:40;12.30;;;5.25;;
36291;SDS011;22327;51.208;6.418;2023-07-02T11:52:40;10.10;;;5.00;;
36291;SDS011;22327;51.208;6.418;2023-07-02T11:55:41;11.07;;;4.88;;
36291;SDS011;22327;51.208;6.418;2023-07-02T11:58:41;9.40;;;5.05;;
36291;SDS011;22327;51.208;6.418;2023-07-02T12:01:43;10.38;;;5.60;;
36291;SDS011;22327;51.208;6.418;2023-07-02T12:04:43;11.93;;;5.72;;
36291;SDS011;22327;51.208;6.418;2023-07-02T12:07:44;7.78;;;4.97;;
36291;SDS011;22327;51.208;6.418;2023-07-02T12:10:44;9.18;;;5.30;;
36291;SDS011;22327;51.208;6.418;2023-07-02T12:13:45;11.85;;;5.32;;
36291;SDS011;22327;51.208;6.418;2023-07-02T12:16:46;11.23;;;5.65;;
36291;SDS011;22327;51.208;6.418;2023-07-02T12:19:46;9.00;;;5.30;;
36291;SDS011;22327;51.208;6.418;2023-07-02T12:22:47;9.70;;;5.43;;
36291;SDS011;22327;51.208;6.418;2023-07-02T12:25:47;8.30;;;5.40;;
36291;SDS011;22327;51.208;6.418;2023-07-02T12:28:48;8.65;;;4.78;;
36291;SDS011;22327;51.208;6.418;2023-07-02T12:31:48;8.07;;;4.35;;
36291;SDS011;22327;51.208;6.418;2023-07-02T12:34:49;11.77;;;5.60;;
36291;SDS011;22327;51.208;6.418;2023-07-02T12:37:51;7.18;;;4.05;;
36291;SDS011;22327;51.208;6.418;2023-07-02T12:40:53;8.75;;;4.82;;
36291;SDS011;22327;51.208;6.418;2023-07-02T12:43:54;10.32;;;5.38;;
36291;SDS011;22327;51.208;6.418;2023-07-02T12:46:54;8.20;;;4.72;;
36291;SDS011;22327;51.208;6.418;2023-07-02T12:49:55;9.40;;;5.15;;
36291;SDS011;22327;51.208;6.418;2023-07-02T12:52:56;8.00;;;4.90;;
36291;SDS011;22327;51.208;6.418;2023-07-02T12:55:56;9.95;;;4.82;;
36291;SDS011;22327;51.208;6.418;2023-07-02T12:58:57;7.75;;;4.75;;
36291;SDS011;22327;51.208;6.418;2023-07-02T13:01:57;8.40;;;4.72;;
36291;SDS011;22327;51.208;6.418;2023-07-02T13:04:58;10.18;;;5.43;;
36291;SDS011;22327;51.208;6.418;2023-07-02T13:07:58;13.05;;;5.68;;
36291;SDS011;22327;51.208;6.418;2023-07-02T13:10:59;9.85;;;5.30;;
36291;SDS011;22327;51.208;6.418;2023-07-02T13:13:59;12.60;;;5.30;;
36291;SDS011;22327;51.208;6.418;2023-07-02T13:17:00;9.00;;;5.47;;
36291;SDS011;22327;51.208;6.418;2023-07-02T13:20:03;9.32;;;6.10;;
36291;SDS011;22327;51.208;6.418;2023-07-02T13:23:04;12.35;;;5.30;;
36291;SDS011;22327;51.208;6.418;2023-07-02T13:26:04;11.18;;;5.60;;
36291;SDS011;22327;51.208;6.418;2023-07-02T13:29:05;10.95;;;5.63;;
36291;SDS011;22327;51.208;6.418;2023-07-02T13:32:05;11.52;;;6.05;;
36291;SDS011;22327;51.208;6.418;2023-07-02T13:35:07;12.70;;;5.97;;
36291;SDS011;22327;51.208;6.418;2023-07-02T13:38:07;11.57;;;5.57;;
36291;SDS011;22327;51.208;6.418;2023-07-02T13:41:08;10.57;;;5.35;;
36291;SDS011;22327;51.208;6.418;2023-07-02T13:44:08;11.10;;;5.95;;
36291;SDS011;22327;51.208;6.418;2023-07-02T13:47:09;10.45;;;5.90;;
36291;SDS011;22327;51.208;6.418;2023-07-02T13:50:11;10.57;;;5.75;;
36291;SDS011;22327;51.208;6.418;2023-07-02T13:53:11;10.95;;;5.47;;
36291;SDS011;22327;51.208;6.418;2023-07-02T13:56:12;12.68;;;7.35;;
36291;SDS011;22327;51.208;6.418;2023-07-02T13:59:12;14.15;;;5.90;;
36291;SDS011;22327;51.208;6.418;2023-07-02T14:02:14;10.32;;;6.78;;
36291;SDS011;22327;51.208;6.418;2023-07-02T14:05:15;14.73;;;7.07;;
36291;SDS011;22327;51.208;6.418;2023-07-02T14:08:15;16.02;;;7.40;;
36291;SDS011;22327;51.208;6.418;2023-07-02T14:11:16;14.20;;;6.32;;
36291;SDS011;22327;51.208;6.418;2023-07-02T14:14:16;15.13;;;6.95;;
36291;SDS011;22327;51.208;6.418;2023-07-02T14:17:17;10.20;;;6.50;;
36291;SDS011;22327;51.208;6.418;2023-07-02T14:20:18;16.38;;;7.30;;
36291;SDS011;22327;51.208;6.418;2023-07-02T14:23:19;12.45;;;6.40;;
36291;SDS011;22327;51.208;6.418;2023-07-02T14:26:19;13.98;;;5.80;;
36291;SDS011;22327;51.208;6.418;2023-07-02T14:29:20;11.18;;;6.22;;
36291;SDS011;22327;51.208;6.418;2023-07-02T14:32:20;12.13;;;5.72;;
36291;SDS011;22327;51.208;6.418;2023-07-02T14:35:21;10.65;;;6.28;;
36291;SDS011;22327;51.208;6.418;2023-07-02T14:38:25;13.90;;;6.38;;
36291;SDS011;22327;51.208;6.418;2023-07-02T14:41:26;14.88;;;6.47;;
36291;SDS011;22327;51.208;6.418;2023-07-02T14:44:27;13.20;;;6.03;;
36291;SDS011;22327;51.208;6.418;2023-07-02T14:47:28;9.45;;;6.32;;
36291;SDS011;22327;51.208;6.418;2023-07-02T14:50:28;11.18;;;5.75;;
36291;SDS011;22327;51.208;6.418;2023-07-02T14:53:30;11.13;;;6.10;;
36291;SDS011;22327;51.208;6.418;2023-07-02T14:56:31;11.60;;;6.05;;
36291;SDS011;22327;51.208;6.418;2023-07-02T14:59:33;10.63;;;5.78;;
36291;SDS011;22327;51.208;6.418;2023-07-02T15:02:33;13.95;;;6.25;;
36291;SDS011;22327;51.208;6.418;2023-07-02T15:05:34;8.88;;;5.95;;
36291;SDS011;22327;51.208;6.418;2023-07-02T15:08:34;10.27;;;5.93;;
36291;SDS011;22327;51.208;6.418;2023-07-02T15:11:35;13.40;;;6.72;;
36291;SDS011;22327;51.208;6.418;2023-07-02T15:14:36;10.52;;;5.88;;
36291;SDS011;22327;51.208;6.418;2023-07-02T15:17:36;12.25;;;6.25;;
36291;SDS011;22327;51.208;6.418;2023-07-02T15:20:37;14.23;;;5.28;;
36291;SDS011;22327;51.208;6.418;2023-07-02T15:23:38;11.07;;;6.10;;
36291;SDS011;22327;51.208;6.418;2023-07-02T15:26:38;11.95;;;5.80;;
36291;SDS011;22327;51.208;6.418;2023-07-02T15:29:42;10.90;;;5.40;;
36291;SDS011;22327;51.208;6.418;2023-07-02T15:32:43;12.57;;;6.03;;
36291;SDS011;22327;51.208;6.418;2023-07-02T15:35:43;10.43;;;5.85;;
36291;SDS011;22327;51.208;6.418;2023-07-02T15:38:44;13.77;;;6.30;;
36291;SDS011;22327;51.208;6.418;2023-07-02T15:41:44;10.77;;;6.13;;
36291;SDS011;22327;51.208;6.418;2023-07-02T15:44:45;11.80;;;6.40;;
36291;SDS011;22327;51.208;6.418;2023-07-02T15:47:46;11.57;;;5.82;;
36291;SDS011;22327;51.208;6.418;2023-07-02T15:50:47;10.98;;;6.00;;
36291;SDS011;22327;51.208;6.418;2023-07-02T15:53:47;11.90;;;5.65;;
36291;SDS011;22327;51.208;6.418;2023-07-02T15:56:48;15.73;;;5.93;;
36291;SDS011;22327;51.208;6.418;2023-07-02T15:59:48;10.73;;;6.32;;
36291;SDS011;22327;51.208;6.418;2023-07-02T16:02:49;12.43;;;5.75;;
36291;SDS011;22327;51.208;6.418;2023-07-02T16:05:54;9.55;;;5.20;;
36291;SDS011;22327;51.208;6.418;2023-07-02T16:08:56;12.10;;;5.50;;
36291;SDS011;22327;51.208;6.418;2023-07-02T16:11:56;10.77;;;5.72;;
36291;SDS011;22327;51.208;6.418;2023-07-02T16:14:57;13.13;;;6.35;;
36291;SDS011;22327;51.208;6.418;2023-07-02T16:17:57;11.25;;;5.47;;
36291;SDS011;22327;51.208;6.418;2023-07-02T16:20:58;13.10;;;5.57;;
36291;SDS011;22327;51.208;6.418;2023-07-02T16:24:00;10.23;;;5.45;;
36291;SDS011;22327;51.208;6.418;2023-07-02T16:27:02;10.05;;;5.22;;
36291;SDS011;22327;51.208;6.418;2023-07-02T16:30:06;11.82;;;6.22;;
36291;SDS011;22327;51.208;6.418;2023-07-02T16:33:07;10.88;;;5.65;;
36291;SDS011;22327;51.208;6.418;2023-07-02T16:36:09;10.38;;;6.10;;
36291;SDS011;22327;51.208;6.418;2023-07-02T16:39:13;9.57;;;5.72;;
36291;SDS011;22327;51.208;6.418;2023-07-02T16:42:15;11.07;;;5.43;;
36291;SDS011;22327;51.208;6.418;2023-07-02T16:45:15;13.68;;;6.35;;
36291;SDS011;22327;51.208;6.418;2023-07-02T16:48:16;11.57;;;6.20;;
36291;SDS011;22327;51.208;6.418;2023-07-02T16:51:16;10.27;;;6.05;;
36291;SDS011;22327;51.208;6.418;2023-07-02T16:54:18;12.30;;;5.90;;
36291;SDS011;22327;51.208;6.418;2023-07-02T16:57:19;13.38;;;7.15;;
36291;SDS011;22327;51.208;6.418;2023-07-02T17:00:20;11.82;;;6.30;;
36291;SDS011;22327;51.208;6.418;2023-07-02T17:03:20;12.82;;;5.53;;
36291;SDS011;22327;51.208;6.418;2023-07-02T17:06:21;9.90;;;6.18;;
36291;SDS011;22327;51.208;6.418;2023-07-02T17:12:32;12.65;;;6.20;;
36291;SDS011;22327;51.208;6.418;2023-07-02T17:15:33;15.63;;;6.47;;
36291;SDS011;22327;51.208;6.418;2023-07-02T17:18:34;11.27;;;6.50;;
36291;SDS011;22327;51.208;6.418;2023-07-02T17:21:35;9.60;;;6.03;;
36291;SDS011;22327;51.208;6.418;2023-07-02T17:24:37;10.40;;;5.75;;
36291;SDS011;22327;51.208;6.418;2023-07-02T17:27:39;12.77;;;6.03;;
36291;SDS011;22327;51.208;6.418;2023-07-02T17:30:40;9.25;;;5.88;;
36291;SDS011;22327;51.208;6.418;2023-07-02T17:33:41;11.95;;;6.20;;
36291;SDS011;22327;51.208;6.418;2023-07-02T17:36:41;9.57;;;5.80;;
36291;SDS011;22327;51.208;6.418;2023-07-02T17:39:43;10.10;;;5.68;;
36291;SDS011;22327;51.208;6.418;2023-07-02T17:42:45;9.90;;;5.63;;
36291;SDS011;22327;51.208;6.418;2023-07-02T17:45:53;14.32;;;7.40;;
36291;SDS011;22327;51.208;6.418;2023-07-02T17:48:54;11.15;;;5.65;;
36291;SDS011;22327;51.208;6.418;2023-07-02T17:51:54;10.77;;;5.70;;
36291;SDS011;22327;51.208;6.418;2023-07-02T17:54:55;15.75;;;6.55;;
36291;SDS011;22327;51.208;6.418;2023-07-02T17:57:58;11.60;;;5.50;;
36291;SDS011;22327;51.208;6.418;2023-07-02T18:00:58;10.73;;;5.78;;